KR-0345 weather

World Business Center (WBC) The Palace Heliports
Haeundae (Busan), Busan Gwang'yeogsi, South Korea

Public forecast

Using degrees Celsius for public forecast. Weather courtesy of forecast.io.

METAR (pilot weather report)

Closest report is Gimhae International Airport, 9.5 nm (17.6 km) W. Retrieved 2019/08/24 19:00 UTC (41 minutes ago):

RKPK 241900Z 36004KT CAVOK 20/18 Q1012

TAF (pilot weather forecast)

Closest forecast is Gimhae International Airport, 9.5 nm (17.6 km) W. Retrieved 2019/08/24 18:00 UTC (2 hours ago):

TAF RKPK 241700Z 2418/2524 33006KT 9999 SCT030 SCT200 TN19/2420Z TX28/2505Z BECMG 2504/2505 21008KT BECMG 2512/2513 33006KT